Friday, August 26, 2016, 4:22 AM EDT
Back to Local

KMPO, Mt Pocono Pocono Mountains

Location: Pocono Summit, PA, United States Lat: 41.133
Local Time: 4:22 AM EDT ( 8:22 GMT) Lon: -75.383
Time Zone: US/Eastern Elev: 1915 ft

Show me the last for .
Show Decoded

2016-08-26 03:53 METAR KMPO 260753Z AUTO 27008KT 9SM FEW004 SCT065 OVC085 22/21 A3004 RMK AO2
                 SLP161 T02170206 =
2016-08-26 03:08 METAR KMPO 260708Z AUTO 26007KT 7SM FEW006 FEW039 SCT120 22/21 A3005 RMK AO2
                 T02170206 =
2016-08-26 02:53 METAR KMPO 260653Z AUTO 27007KT 9SM CLR 22/21 A3005 RMK AO2 SLP162 T02170206 =
2016-08-26 01:53 METAR KMPO 260553Z AUTO 26005KT 7SM CLR 21/21 A3004 RMK AO2 SLP163 T02110206
                 10217 20206 58011 =
2016-08-26 00:53 METAR KMPO 260453Z AUTO 25006KT 6SM BR CLR 21/21 A3006 RMK AO2 SLP166 T02110206
                 402330167 =
2016-08-25 23:53 METAR KMPO 260353Z AUTO 24007KT 5SM BR SCT005 21/21 A3007 RMK AO2 SLP169
                 T02110206 =
2016-08-25 23:35 METAR KMPO 260335Z AUTO 24006KT 6SM BR FEW005 21/21 A3007 RMK AO2 T02110206 =
2016-08-25 22:53 METAR KMPO 260253Z AUTO 25004KT 6SM BR CLR 21/21 A3008 RMK AO2 SLP174 T02110206
                 58001 =
2016-08-25 21:53 METAR KMPO 260153Z AUTO 23005KT 9SM CLR 21/21 A3008 RMK AO2 SLP175 T02110206 =
2016-08-25 20:53 METAR KMPO 260053Z AUTO 27003KT 10SM CLR 21/20 A3009 RMK AO2 SLP179 T02110200 =
2016-08-25 19:53 METAR KMPO 252353Z AUTO 23005KT 10SM CLR 22/20 A3008 RMK AO2 SLP175 60000
                 T02170200 10233 20211 55001 =
2016-08-25 18:53 METAR KMPO 252253Z AUTO 26006KT 10SM CLR 23/20 A3007 RMK AO2 SLP173 T02280200 =
2016-08-25 17:53 METAR KMPO 252153Z AUTO 26007KT 10SM FEW012 SCT028 OVC043 22/20 A3008 RMK AO2
                 SLP176 T02220200 =
2016-08-25 17:31 METAR KMPO 252131Z AUTO 27006KT 10SM FEW010 BKN017 OVC024 22/20 A3008 RMK AO2
                 T02220200 =
2016-08-25 16:53 METAR KMPO 252053Z AUTO 26010KT 10SM OVC014 22/19 A3008 RMK AO2 RAE05 SLP178
                 P0000 60000 T02220194 56007 =
2016-08-25 15:53 METAR KMPO 251953Z AUTO 25008KT 8SM -RA BKN014 BKN042 OVC060 22/19 A3009 RMK AO2
                 RAB51 SLP180 P0000 T02220194 =
2016-08-25 15:40 METAR KMPO 251940Z AUTO 24007KT 10SM BKN013 OVC060 22/19 A3009 RMK AO2 T02220194
                 =
2016-08-25 15:14 METAR KMPO 251914Z AUTO 23009KT 10SM SCT014 BKN023 BKN050 23/19 A3009 RMK AO2
                 T02280194 =
2016-08-25 14:53 METAR KMPO 251853Z AUTO 25010KT 10SM OVC014 23/19 A3010 RMK AO2 SLP180 T02280194
                 =
2016-08-25 13:53 METAR KMPO 251753Z AUTO 21011KT 10SM BKN010 BKN016 OVC029 21/19 A3010 RMK AO2
                 SLP186 60000 T02110189 10233 20189 58004 =
2016-08-25 13:51 METAR KMPO 251751Z AUTO 20012KT 10SM BKN010 BKN016 OVC029 21/19 A3011 RMK AO2
                 CIG 008V015 =
2016-08-25 12:53 METAR KMPO 251653Z AUTO 20007KT 10SM OVC028 22/19 A3012 RMK AO2 RAB27E42 SLP189
                 P0000 T02170189 =
2016-08-25 11:53 METAR KMPO 251553Z AUTO 20008KT 10SM BKN034 BKN044 23/18 A3012 RMK AO2 SLP189
                 T02330183 =
2016-08-25 10:53 METAR KMPO 251453Z AUTO 19007KT 10SM FEW040 22/18 A3013 RMK AO2 SLP193 T02220178
                 58005 =
2016-08-25 09:53 METAR KMPO 251353Z AUTO 18007KT 10SM CLR 21/17 A3014 RMK AO2 SLP196 T02110172 =
2016-08-25 08:53 METAR KMPO 251253Z AUTO 23007KT 10SM CLR 19/16 A3015 RMK AO2 SLP204 T01890161 =
2016-08-25 07:53 METAR KMPO 251153Z AUTO 23006KT 10SM CLR 19/16 A3015 RMK AO2 SLP200 T01890161
                 10189 20167 58003 =
2016-08-25 06:53 METAR KMPO 251053Z AUTO 25005KT 10SM CLR 17/ A3016 RMK AO2 SLP203 T0167 $ =
2016-08-25 05:53 METAR KMPO 250953Z AUTO 26005KT 10SM CLR 17/ A3015 RMK AO2 SLP200 T0167 $ =
2016-08-25 04:53 METAR KMPO 250853Z AUTO 25004KT 10SM CLR 17/ A3015 RMK AO2 SLP200 T0172 56010 $
                 =

Support USWX by starting your Amazon purchase here.